sensor_id;sensor_type;location;lat;lon;timestamp;pressure;altitude;pressure_sealevel;temperature;humidity
53011;BME280;42803;55.762;38.084;2023-10-09T00:02:10;96919.38;;;0.27;100.00
53011;BME280;42803;55.762;38.084;2023-10-09T00:04:41;96917.78;;;0.41;100.00
53011;BME280;42803;55.762;38.084;2023-10-09T00:07:15;96917.38;;;0.35;100.00
53011;BME280;42803;55.762;38.084;2023-10-09T00:09:45;96930.19;;;0.35;100.00
53011;BME280;42803;55.762;38.084;2023-10-09T00:12:21;96939.66;;;0.36;100.00
53011;BME280;42803;55.762;38.084;2023-10-09T00:14:53;96936.44;;;0.38;100.00
53011;BME280;42803;55.762;38.084;2023-10-09T00:17:30;96939.22;;;0.41;100.00
53011;BME280;42803;55.762;38.084;2023-10-09T00:20:01;96957.63;;;0.36;100.00
53011;BME280;42803;55.762;38.084;2023-10-09T00:22:46;96947.69;;;0.29;100.00
53011;BME280;42803;55.762;38.084;2023-10-09T00:25:16;96965.09;;;0.33;100.00
53011;BME280;42803;55.762;38.084;2023-10-09T00:27:51;96968.00;;;0.37;100.00
53011;BME280;42803;55.762;38.084;2023-10-09T00:30:20;96965.75;;;0.30;100.00
53011;BME280;42803;55.762;38.084;2023-10-09T00:32:58;96980.78;;;0.26;100.00
53011;BME280;42803;55.762;38.084;2023-10-09T00:35:30;96964.75;;;0.28;100.00
53011;BME280;42803;55.762;38.084;2023-10-09T00:38:07;96979.69;;;0.34;100.00
53011;BME280;42803;55.762;38.084;2023-10-09T00:40:44;96987.28;;;0.32;100.00
53011;BME280;42803;55.762;38.084;2023-10-09T00:43:16;96983.63;;;0.40;100.00
53011;BME280;42803;55.762;38.084;2023-10-09T00:45:47;96988.66;;;0.39;100.00
53011;BME280;42803;55.762;38.084;2023-10-09T00:48:21;97000.94;;;0.43;100.00
53011;BME280;42803;55.762;38.084;2023-10-09T00:50:59;96995.25;;;0.47;100.00
53011;BME280;42803;55.762;38.084;2023-10-09T00:53:33;96998.06;;;0.50;100.00
53011;BME280;42803;55.762;38.084;2023-10-09T00:56:04;97005.75;;;0.50;100.00
53011;BME280;42803;55.762;38.084;2023-10-09T00:58:48;97006.41;;;0.59;100.00
53011;BME280;42803;55.762;38.084;2023-10-09T01:01:30;97019.94;;;0.68;100.00
53011;BME280;42803;55.762;38.084;2023-10-09T01:04:07;97013.91;;;0.68;100.00
53011;BME280;42803;55.762;38.084;2023-10-09T01:06:41;97030.97;;;0.67;100.00
53011;BME280;42803;55.762;38.084;2023-10-09T01:09:15;97045.19;;;0.74;100.00
53011;BME280;42803;55.762;38.084;2023-10-09T01:11:52;97032.09;;;0.71;100.00
53011;BME280;42803;55.762;38.084;2023-10-09T01:14:37;97032.44;;;0.76;100.00
53011;BME280;42803;55.762;38.084;2023-10-09T01:17:11;97036.59;;;0.73;100.00
53011;BME280;42803;55.762;38.084;2023-10-09T01:20:01;97038.38;;;0.86;100.00
53011;BME280;42803;55.762;38.084;2023-10-09T01:22:33;97046.53;;;0.81;100.00
53011;BME280;42803;55.762;38.084;2023-10-09T01:25:05;97052.22;;;0.77;100.00
53011;BME280;42803;55.762;38.084;2023-10-09T01:27:45;97065.94;;;0.77;100.00
53011;BME280;42803;55.762;38.084;2023-10-09T01:30:16;97054.56;;;0.85;100.00
53011;BME280;42803;55.762;38.084;2023-10-09T01:32:45;97064.19;;;0.88;100.00
53011;BME280;42803;55.762;38.084;2023-10-09T01:35:16;97079.69;;;0.89;100.00
53011;BME280;42803;55.762;38.084;2023-10-09T01:37:50;97087.75;;;0.94;100.00
53011;BME280;42803;55.762;38.084;2023-10-09T01:40:21;97079.38;;;0.85;100.00
53011;BME280;42803;55.762;38.084;2023-10-09T01:43:05;97092.06;;;0.83;100.00
53011;BME280;42803;55.762;38.084;2023-10-09T01:45:37;97096.22;;;0.93;100.00
53011;BME280;42803;55.762;38.084;2023-10-09T01:48:12;97093.19;;;0.87;100.00
53011;BME280;42803;55.762;38.084;2023-10-09T01:50:52;97107.50;;;0.95;100.00
53011;BME280;42803;55.762;38.084;2023-10-09T01:53:22;97112.09;;;0.99;100.00
53011;BME280;42803;55.762;38.084;2023-10-09T01:56:08;97121.94;;;1.05;100.00
53011;BME280;42803;55.762;38.084;2023-10-09T01:58:43;97107.88;;;1.11;100.00
53011;BME280;42803;55.762;38.084;2023-10-09T02:01:16;97118.47;;;1.04;100.00
53011;BME280;42803;55.762;38.084;2023-10-09T02:03:46;97122.59;;;1.02;100.00
53011;BME280;42803;55.762;38.084;2023-10-09T02:06:19;97134.69;;;1.03;100.00
53011;BME280;42803;55.762;38.084;2023-10-09T02:08:56;97131.19;;;1.03;100.00
53011;BME280;42803;55.762;38.084;2023-10-09T02:11:29;97149.97;;;1.02;100.00
53011;BME280;42803;55.762;38.084;2023-10-09T02:14:11;97153.41;;;1.02;100.00
53011;BME280;42803;55.762;38.084;2023-10-09T02:16:48;97147.88;;;1.08;100.00
53011;BME280;42803;55.762;38.084;2023-10-09T02:19:32;97163.03;;;1.05;100.00
53011;BME280;42803;55.762;38.084;2023-10-09T02:22:02;97165.84;;;1.08;100.00
53011;BME280;42803;55.762;38.084;2023-10-09T02:24:40;97167.50;;;0.95;100.00
53011;BME280;42803;55.762;38.084;2023-10-09T02:27:27;97168.81;;;1.02;100.00
53011;BME280;42803;55.762;38.084;2023-10-09T02:30:13;97180.78;;;1.02;100.00
53011;BME280;42803;55.762;38.084;2023-10-09T02:32:47;97196.09;;;1.00;100.00
53011;BME280;42803;55.762;38.084;2023-10-09T02:35:21;97178.09;;;1.00;100.00
53011;BME280;42803;55.762;38.084;2023-10-09T02:37:57;97184.94;;;1.00;100.00
53011;BME280;42803;55.762;38.084;2023-10-09T02:40:28;97183.34;;;1.02;100.00
53011;BME280;42803;55.762;38.084;2023-10-09T02:43:02;97186.91;;;0.92;100.00
53011;BME280;42803;55.762;38.084;2023-10-09T02:45:31;97196.50;;;0.94;100.00
53011;BME280;42803;55.762;38.084;2023-10-09T02:48:05;97202.41;;;0.93;100.00
53011;BME280;42803;55.762;38.084;2023-10-09T02:50:38;97199.06;;;0.94;100.00
53011;BME280;42803;55.762;38.084;2023-10-09T02:53:12;97208.59;;;0.95;100.00
53011;BME280;42803;55.762;38.084;2023-10-09T02:55:47;97219.50;;;0.93;100.00
53011;BME280;42803;55.762;38.084;2023-10-09T02:58:40;97233.25;;;0.93;100.00
53011;BME280;42803;55.762;38.084;2023-10-09T03:01:11;97251.81;;;1.01;100.00
53011;BME280;42803;55.762;38.084;2023-10-09T03:03:41;97233.59;;;0.98;100.00
53011;BME280;42803;55.762;38.084;2023-10-09T03:06:15;97242.72;;;0.94;100.00
53011;BME280;42803;55.762;38.084;2023-10-09T03:08:51;97252.34;;;0.97;100.00
53011;BME280;42803;55.762;38.084;2023-10-09T03:11:22;97237.47;;;0.93;100.00
53011;BME280;42803;55.762;38.084;2023-10-09T03:13:56;97250.31;;;0.93;100.00
53011;BME280;42803;55.762;38.084;2023-10-09T03:16:33;97262.63;;;0.97;100.00
53011;BME280;42803;55.762;38.084;2023-10-09T03:19:02;97262.88;;;1.00;100.00
53011;BME280;42803;55.762;38.084;2023-10-09T03:21:32;97262.72;;;0.98;100.00
53011;BME280;42803;55.762;38.084;2023-10-09T03:24:01;97270.97;;;0.94;100.00
53011;BME280;42803;55.762;38.084;2023-10-09T03:26:32;97265.97;;;0.96;100.00
53011;BME280;42803;55.762;38.084;2023-10-09T03:29:03;97274.94;;;1.01;100.00
53011;BME280;42803;55.762;38.084;2023-10-09T03:31:34;97289.84;;;0.95;100.00
53011;BME280;42803;55.762;38.084;2023-10-09T03:34:04;97293.34;;;0.95;100.00
53011;BME280;42803;55.762;38.084;2023-10-09T03:36:34;97299.72;;;1.01;100.00
53011;BME280;42803;55.762;38.084;2023-10-09T03:39:06;97299.56;;;0.99;100.00
53011;BME280;42803;55.762;38.084;2023-10-09T03:41:52;97303.44;;;1.04;100.00
53011;BME280;42803;55.762;38.084;2023-10-09T03:44:23;97324.31;;;1.09;100.00
53011;BME280;42803;55.762;38.084;2023-10-09T03:46:55;97306.44;;;1.10;100.00
53011;BME280;42803;55.762;38.084;2023-10-09T03:49:24;97307.00;;;1.06;100.00
53011;BME280;42803;55.762;38.084;2023-10-09T03:51:53;97312.13;;;1.06;100.00
53011;BME280;42803;55.762;38.084;2023-10-09T03:54:23;97316.50;;;1.07;100.00
53011;BME280;42803;55.762;38.084;2023-10-09T03:56:54;97320.22;;;1.11;100.00
53011;BME280;42803;55.762;38.084;2023-10-09T03:59:28;97325.22;;;1.09;100.00
53011;BME280;42803;55.762;38.084;2023-10-09T04:02:00;97320.56;;;1.15;100.00
53011;BME280;42803;55.762;38.084;2023-10-09T04:04:32;97321.22;;;1.13;100.00
53011;BME280;42803;55.762;38.084;2023-10-09T04:07:04;97325.03;;;1.18;100.00
53011;BME280;42803;55.762;38.084;2023-10-09T04:09:34;97355.22;;;1.20;100.00
53011;BME280;42803;55.762;38.084;2023-10-09T04:12:07;97339.25;;;1.25;100.00
53011;BME280;42803;55.762;38.084;2023-10-09T04:14:50;97359.03;;;1.26;100.00
53011;BME280;42803;55.762;38.084;2023-10-09T04:17:26;97344.09;;;1.32;100.00
53011;BME280;42803;55.762;38.084;2023-10-09T04:20:10;97339.84;;;1.32;100.00
53011;BME280;42803;55.762;38.084;2023-10-09T04:23:08;97348.59;;;1.34;100.00
53011;BME280;42803;55.762;38.084;2023-10-09T04:25:44;97362.44;;;1.36;100.00
53011;BME280;42803;55.762;38.084;2023-10-09T04:28:17;97364.13;;;1.36;100.00
53011;BME280;42803;55.762;38.084;2023-10-09T04:30:49;97364.34;;;1.39;100.00
53011;BME280;42803;55.762;38.084;2023-10-09T04:33:23;97361.34;;;1.44;100.00
53011;BME280;42803;55.762;38.084;2023-10-09T04:36:10;97372.06;;;1.39;100.00
53011;BME280;42803;55.762;38.084;2023-10-09T04:38:52;97364.34;;;1.39;100.00
53011;BME280;42803;55.762;38.084;2023-10-09T04:41:43;97405.28;;;1.48;100.00
53011;BME280;42803;55.762;38.084;2023-10-09T04:44:42;97387.72;;;1.42;100.00
53011;BME280;42803;55.762;38.084;2023-10-09T04:47:29;97399.25;;;1.47;100.00
53011;BME280;42803;55.762;38.084;2023-10-09T04:50:06;97401.59;;;1.44;100.00
53011;BME280;42803;55.762;38.084;2023-10-09T04:52:38;97390.75;;;1.48;100.00
53011;BME280;42803;55.762;38.084;2023-10-09T04:55:21;97409.25;;;1.54;100.00
53011;BME280;42803;55.762;38.084;2023-10-09T04:57:54;97421.59;;;1.48;100.00
53011;BME280;42803;55.762;38.084;2023-10-09T05:00:30;97406.19;;;1.48;100.00
53011;BME280;42803;55.762;38.084;2023-10-09T05:03:20;97417.50;;;1.50;100.00
53011;BME280;42803;55.762;38.084;2023-10-09T05:05:57;97421.38;;;1.45;100.00
53011;BME280;42803;55.762;38.084;2023-10-09T05:08:49;97422.63;;;1.50;100.00
53011;BME280;42803;55.762;38.084;2023-10-09T05:11:17;97424.31;;;1.50;100.00
53011;BME280;42803;55.762;38.084;2023-10-09T05:14:00;97444.75;;;1.48;100.00
53011;BME280;42803;55.762;38.084;2023-10-09T05:16:41;97439.78;;;1.39;100.00
53011;BME280;42803;55.762;38.084;2023-10-09T05:19:23;97433.22;;;1.43;100.00
53011;BME280;42803;55.762;38.084;2023-10-09T05:22:10;97455.72;;;1.45;100.00
53011;BME280;42803;55.762;38.084;2023-10-09T05:24:57;97455.22;;;1.39;100.00
53011;BME280;42803;55.762;38.084;2023-10-09T05:27:30;97455.84;;;1.37;100.00
53011;BME280;42803;55.762;38.084;2023-10-09T05:30:22;97455.31;;;1.41;100.00
53011;BME280;42803;55.762;38.084;2023-10-09T05:32:55;97465.38;;;1.38;100.00
53011;BME280;42803;55.762;38.084;2023-10-09T05:35:28;97478.88;;;1.35;100.00
53011;BME280;42803;55.762;38.084;2023-10-09T05:38:08;97477.09;;;1.34;100.00
53011;BME280;42803;55.762;38.084;2023-10-09T05:40:52;97496.50;;;1.31;100.00
53011;BME280;42803;55.762;38.084;2023-10-09T05:43:32;97486.47;;;1.34;100.00
53011;BME280;42803;55.762;38.084;2023-10-09T05:46:19;97494.00;;;1.42;100.00
53011;BME280;42803;55.762;38.084;2023-10-09T05:49:03;97493.19;;;1.54;100.00
53011;BME280;42803;55.762;38.084;2023-10-09T05:51:49;97483.38;;;1.60;100.00
53011;BME280;42803;55.762;38.084;2023-10-09T05:54:42;97487.75;;;1.61;100.00
53011;BME280;42803;55.762;38.084;2023-10-09T05:57:42;97501.63;;;1.63;100.00
53011;BME280;42803;55.762;38.084;2023-10-09T06:00:28;97496.13;;;1.58;100.00
53011;BME280;42803;55.762;38.084;2023-10-09T06:03:15;97505.09;;;1.63;100.00
53011;BME280;42803;55.762;38.084;2023-10-09T06:05:56;97511.84;;;1.73;100.00
53011;BME280;42803;55.762;38.084;2023-10-09T06:08:34;97515.22;;;1.72;100.00
53011;BME280;42803;55.762;38.084;2023-10-09T06:11:21;97510.19;;;1.74;100.00
53011;BME280;42803;55.762;38.084;2023-10-09T06:14:09;97507.84;;;1.77;100.00
53011;BME280;42803;55.762;38.084;2023-10-09T06:16:42;97519.81;;;1.76;100.00
53011;BME280;42803;55.762;38.084;2023-10-09T06:19:27;97525.19;;;1.79;100.00
53011;BME280;42803;55.762;38.084;2023-10-09T06:22:00;97510.44;;;1.77;100.00
53011;BME280;42803;55.762;38.084;2023-10-09T06:24:47;97536.41;;;1.80;100.00
53011;BME280;42803;55.762;38.084;2023-10-09T06:27:25;97550.53;;;1.75;100.00
53011;BME280;42803;55.762;38.084;2023-10-09T06:30:15;97531.00;;;1.77;100.00
53011;BME280;42803;55.762;38.084;2023-10-09T06:32:52;97549.00;;;1.77;100.00
53011;BME280;42803;55.762;38.084;2023-10-09T06:35:35;97542.69;;;1.83;100.00
53011;BME280;42803;55.762;38.084;2023-10-09T06:38:04;97554.56;;;1.93;100.00
53011;BME280;42803;55.762;38.084;2023-10-09T06:40:51;97561.75;;;1.97;100.00
53011;BME280;42803;55.762;38.084;2023-10-09T06:43:38;97570.91;;;1.93;100.00
53011;BME280;42803;55.762;38.084;2023-10-09T06:46:16;97570.31;;;2.08;100.00
53011;BME280;42803;55.762;38.084;2023-10-09T06:49:17;97581.78;;;2.01;100.00
53011;BME280;42803;55.762;38.084;2023-10-09T06:52:01;97573.06;;;1.99;100.00
53011;BME280;42803;55.762;38.084;2023-10-09T06:54:43;97589.03;;;1.95;100.00
53011;BME280;42803;55.762;38.084;2023-10-09T06:57:19;97593.56;;;2.09;100.00
53011;BME280;42803;55.762;38.084;2023-10-09T07:00:13;97595.63;;;2.13;100.00
53011;BME280;42803;55.762;38.084;2023-10-09T07:03:00;97602.75;;;2.28;100.00
53011;BME280;42803;55.762;38.084;2023-10-09T07:05:41;97599.88;;;2.35;100.00
53011;BME280;42803;55.762;38.084;2023-10-09T07:08:28;97613.19;;;2.29;100.00
53011;BME280;42803;55.762;38.084;2023-10-09T07:11:05;97606.50;;;2.43;100.00
53011;BME280;42803;55.762;38.084;2023-10-09T07:14:06;97614.63;;;2.59;100.00
53011;BME280;42803;55.762;38.084;2023-10-09T07:16:58;97616.03;;;2.78;100.00
53011;BME280;42803;55.762;38.084;2023-10-09T07:19:31;97616.75;;;2.87;100.00
53011;BME280;42803;55.762;38.084;2023-10-09T07:22:25;97619.03;;;2.94;100.00
53011;BME280;42803;55.762;38.084;2023-10-09T07:25:07;97621.34;;;2.79;100.00
53011;BME280;42803;55.762;38.084;2023-10-09T07:27:55;97633.72;;;2.73;100.00
53011;BME280;42803;55.762;38.084;2023-10-09T07:30:42;97642.19;;;2.60;100.00
53011;BME280;42803;55.762;38.084;2023-10-09T07:33:17;97644.00;;;2.61;100.00
53011;BME280;42803;55.762;38.084;2023-10-09T07:36:00;97639.09;;;2.64;100.00
53011;BME280;42803;55.762;38.084;2023-10-09T07:38:36;97647.59;;;2.63;100.00
53011;BME280;42803;55.762;38.084;2023-10-09T07:41:05;97647.59;;;2.63;100.00
53011;BME280;42803;55.762;38.084;2023-10-09T07:43:49;97662.25;;;2.64;100.00
53011;BME280;42803;55.762;38.084;2023-10-09T07:46:19;97678.97;;;2.69;100.00
53011;BME280;42803;55.762;38.084;2023-10-09T07:49:04;97666.47;;;2.86;100.00
53011;BME280;42803;55.762;38.084;2023-10-09T07:51:37;97667.88;;;3.04;100.00
53011;BME280;42803;55.762;38.084;2023-10-09T07:54:13;97665.47;;;3.17;100.00
53011;BME280;42803;55.762;38.084;2023-10-09T07:56:49;97679.03;;;3.27;100.00
53011;BME280;42803;55.762;38.084;2023-10-09T07:59:21;97676.09;;;3.56;100.00
53011;BME280;42803;55.762;38.084;2023-10-09T08:01:53;97693.13;;;3.77;100.00
53011;BME280;42803;55.762;38.084;2023-10-09T08:04:29;97661.41;;;3.66;100.00
53011;BME280;42803;55.762;38.084;2023-10-09T08:07:09;97695.16;;;3.70;100.00
53011;BME280;42803;55.762;38.084;2023-10-09T08:10:10;97709.03;;;3.48;100.00
53011;BME280;42803;55.762;38.084;2023-10-09T08:12:57;97703.00;;;3.48;100.00
53011;BME280;42803;55.762;38.084;2023-10-09T08:15:27;97706.69;;;3.51;100.00
53011;BME280;42803;55.762;38.084;2023-10-09T08:18:03;97705.69;;;3.61;100.00
53011;BME280;42803;55.762;38.084;2023-10-09T08:20:41;97712.44;;;3.59;100.00
53011;BME280;42803;55.762;38.084;2023-10-09T08:23:39;97734.63;;;3.57;100.00
53011;BME280;42803;55.762;38.084;2023-10-09T08:26:21;97713.97;;;3.45;100.00
53011;BME280;42803;55.762;38.084;2023-10-09T08:29:17;97731.16;;;3.56;100.00
53011;BME280;42803;55.762;38.084;2023-10-09T08:31:46;97723.97;;;3.52;100.00
53011;BME280;42803;55.762;38.084;2023-10-09T08:34:25;97742.91;;;3.53;100.00
53011;BME280;42803;55.762;38.084;2023-10-09T08:37:11;97733.59;;;3.55;100.00
53011;BME280;42803;55.762;38.084;2023-10-09T08:39:49;97746.53;;;3.66;100.00
53011;BME280;42803;55.762;38.084;2023-10-09T08:42:22;97745.66;;;3.78;100.00
53011;BME280;42803;55.762;38.084;2023-10-09T08:44:58;97764.72;;;3.80;100.00
53011;BME280;42803;55.762;38.084;2023-10-09T08:47:32;97756.06;;;3.67;100.00
53011;BME280;42803;55.762;38.084;2023-10-09T08:50:04;97756.97;;;3.68;100.00
53011;BME280;42803;55.762;38.084;2023-10-09T08:52:46;97744.72;;;3.65;100.00
53011;BME280;42803;55.762;38.084;2023-10-09T08:55:21;97761.09;;;3.66;100.00
53011;BME280;42803;55.762;38.084;2023-10-09T08:57:57;97759.31;;;3.65;100.00
53011;BME280;42803;55.762;38.084;2023-10-09T09:00:43;97774.66;;;3.52;100.00
53011;BME280;42803;55.762;38.084;2023-10-09T09:03:41;97769.50;;;3.52;100.00
53011;BME280;42803;55.762;38.084;2023-10-09T09:06:15;97784.00;;;3.39;100.00
53011;BME280;42803;55.762;38.084;2023-10-09T09:08:49;97776.16;;;3.38;100.00
53011;BME280;42803;55.762;38.084;2023-10-09T09:11:27;97793.22;;;3.36;100.00
53011;BME280;42803;55.762;38.084;2023-10-09T09:14:07;97801.00;;;3.26;100.00
53011;BME280;42803;55.762;38.084;2023-10-09T09:16:47;97792.28;;;3.35;100.00
53011;BME280;42803;55.762;38.084;2023-10-09T09:19:18;97803.19;;;3.43;100.00
53011;BME280;42803;55.762;38.084;2023-10-09T09:21:50;97801.00;;;3.48;100.00
53011;BME280;42803;55.762;38.084;2023-10-09T09:24:24;97797.38;;;3.46;100.00
53011;BME280;42803;55.762;38.084;2023-10-09T09:27:01;97816.09;;;3.43;100.00
53011;BME280;42803;55.762;38.084;2023-10-09T09:29:46;97806.75;;;3.33;100.00
53011;BME280;42803;55.762;38.084;2023-10-09T09:32:28;97798.72;;;3.40;100.00
53011;BME280;42803;55.762;38.084;2023-10-09T09:35:17;97806.41;;;3.62;100.00
53011;BME280;42803;55.762;38.084;2023-10-09T09:37:53;97814.88;;;3.50;100.00
53011;BME280;42803;55.762;38.084;2023-10-09T09:40:34;97827.75;;;3.38;100.00
53011;BME280;42803;55.762;38.084;2023-10-09T09:43:13;97831.81;;;3.24;100.00
53011;BME280;42803;55.762;38.084;2023-10-09T09:45:55;97818.28;;;3.27;100.00
53011;BME280;42803;55.762;38.084;2023-10-09T09:48:29;97826.50;;;3.33;100.00
53011;BME280;42803;55.762;38.084;2023-10-09T09:51:12;97841.28;;;3.35;100.00
53011;BME280;42803;55.762;38.084;2023-10-09T09:53:47;97829.53;;;3.39;100.00
53011;BME280;42803;55.762;38.084;2023-10-09T09:56:25;97821.97;;;3.52;100.00
53011;BME280;42803;55.762;38.084;2023-10-09T09:59:03;97826.09;;;3.50;100.00
53011;BME280;42803;55.762;38.084;2023-10-09T10:01:43;97843.84;;;3.57;100.00
53011;BME280;42803;55.762;38.084;2023-10-09T10:04:28;97829.97;;;3.55;100.00
53011;BME280;42803;55.762;38.084;2023-10-09T10:07:09;97836.25;;;3.59;100.00
53011;BME280;42803;55.762;38.084;2023-10-09T10:09:50;97807.97;;;3.60;100.00
53011;BME280;42803;55.762;38.084;2023-10-09T10:12:53;97850.31;;;3.74;100.00
53011;BME280;42803;55.762;38.084;2023-10-09T10:15:58;97849.19;;;3.71;100.00
53011;BME280;42803;55.762;38.084;2023-10-09T10:18:53;97849.31;;;3.84;100.00
53011;BME280;42803;55.762;38.084;2023-10-09T10:21:37;97862.94;;;3.93;100.00
53011;BME280;42803;55.762;38.084;2023-10-09T10:24:43;97855.84;;;3.79;100.00
53011;BME280;42803;55.762;38.084;2023-10-09T10:27:32;97854.22;;;3.69;100.00
53011;BME280;42803;55.762;38.084;2023-10-09T10:30:29;97854.41;;;3.60;100.00
53011;BME280;42803;55.762;38.084;2023-10-09T10:33:12;97870.38;;;3.66;100.00
53011;BME280;42803;55.762;38.084;2023-10-09T10:35:48;97865.31;;;3.68;100.00
53011;BME280;42803;55.762;38.084;2023-10-09T10:38:37;97878.44;;;3.59;100.00
53011;BME280;42803;55.762;38.084;2023-10-09T10:41:19;97876.38;;;3.55;100.00
53011;BME280;42803;55.762;38.084;2023-10-09T10:43:51;97885.13;;;3.57;100.00
53011;BME280;42803;55.762;38.084;2023-10-09T10:46:53;97875.59;;;3.56;100.00
53011;BME280;42803;55.762;38.084;2023-10-09T10:49:30;97884.69;;;3.51;100.00
53011;BME280;42803;55.762;38.084;2023-10-09T10:52:31;97891.28;;;3.48;100.00
53011;BME280;42803;55.762;38.084;2023-10-09T10:55:14;97898.56;;;3.53;100.00
53011;BME280;42803;55.762;38.084;2023-10-09T10:58:17;97900.44;;;3.44;100.00
53011;BME280;42803;55.762;38.084;2023-10-09T11:01:15;97910.47;;;3.51;100.00
53011;BME280;42803;55.762;38.084;2023-10-09T11:03:53;97904.31;;;3.39;100.00
53011;BME280;42803;55.762;38.084;2023-10-09T11:06:42;97903.19;;;3.35;100.00
53011;BME280;42803;55.762;38.084;2023-10-09T11:09:23;97938.25;;;3.44;100.00
53011;BME280;42803;55.762;38.084;2023-10-09T11:15:14;97925.94;;;3.51;100.00
53011;BME280;42803;55.762;38.084;2023-10-09T11:18:11;97916.91;;;3.46;100.00
53011;BME280;42803;55.762;38.084;2023-10-09T11:20:57;97927.78;;;3.42;100.00
53011;BME280;42803;55.762;38.084;2023-10-09T11:23:52;97944.88;;;3.30;100.00
53011;BME280;42803;55.762;38.084;2023-10-09T11:26:29;97942.94;;;3.27;100.00
53011;BME280;42803;55.762;38.084;2023-10-09T11:29:14;97941.84;;;3.13;100.00
53011;BME280;42803;55.762;38.084;2023-10-09T11:32:01;97945.59;;;3.07;100.00
53011;BME280;42803;55.762;38.084;2023-10-09T11:34:38;97952.97;;;3.02;100.00
53011;BME280;42803;55.762;38.084;2023-10-09T11:37:13;97951.41;;;3.04;100.00
53011;BME280;42803;55.762;38.084;2023-10-09T11:39:51;97954.47;;;3.10;100.00
53011;BME280;42803;55.762;38.084;2023-10-09T11:42:36;97973.50;;;3.23;100.00
53011;BME280;42803;55.762;38.084;2023-10-09T11:45:22;97961.56;;;3.13;100.00
53011;BME280;42803;55.762;38.084;2023-10-09T11:48:16;97975.09;;;3.10;100.00
53011;BME280;42803;55.762;38.084;2023-10-09T11:51:03;97988.88;;;3.21;100.00
53011;BME280;42803;55.762;38.084;2023-10-09T11:53:48;97974.97;;;3.09;100.00
53011;BME280;42803;55.762;38.084;2023-10-09T11:56:25;97956.09;;;2.98;100.00
53011;BME280;42803;55.762;38.084;2023-10-09T11:59:02;97988.03;;;2.90;100.00
53011;BME280;42803;55.762;38.084;2023-10-09T12:01:46;97983.13;;;2.93;100.00
53011;BME280;42803;55.762;38.084;2023-10-09T12:04:26;97979.91;;;2.96;100.00
53011;BME280;42803;55.762;38.084;2023-10-09T12:07:20;97987.38;;;2.92;100.00
53011;BME280;42803;55.762;38.084;2023-10-09T12:10:01;97987.75;;;2.97;100.00
53011;BME280;42803;55.762;38.084;2023-10-09T12:12:37;97980.28;;;2.90;100.00
53011;BME280;42803;55.762;38.084;2023-10-09T12:15:17;97981.75;;;2.86;100.00
53011;BME280;42803;55.762;38.084;2023-10-09T12:17:53;97998.50;;;2.81;100.00
53011;BME280;42803;55.762;38.084;2023-10-09T12:20:41;98000.44;;;2.74;100.00
53011;BME280;42803;55.762;38.084;2023-10-09T12:23:29;98005.09;;;2.67;100.00
53011;BME280;42803;55.762;38.084;2023-10-09T12:26:25;98008.97;;;2.52;100.00
53011;BME280;42803;55.762;38.084;2023-10-09T12:29:02;98004.47;;;2.50;100.00
53011;BME280;42803;55.762;38.084;2023-10-09T12:31:44;98017.84;;;2.46;100.00
53011;BME280;42803;55.762;38.084;2023-10-09T12:34:24;98028.53;;;2.40;100.00
53011;BME280;42803;55.762;38.084;2023-10-09T12:37:09;98041.81;;;2.44;100.00
53011;BME280;42803;55.762;38.084;2023-10-09T12:39:46;98037.41;;;2.43;100.00
53011;BME280;42803;55.762;38.084;2023-10-09T12:42:26;98041.28;;;2.38;100.00
53011;BME280;42803;55.762;38.084;2023-10-09T12:44:59;98052.88;;;2.33;100.00
53011;BME280;42803;55.762;38.084;2023-10-09T12:47:49;98042.44;;;2.42;100.00
53011;BME280;42803;55.762;38.084;2023-10-09T12:50:20;98058.78;;;2.42;100.00
53011;BME280;42803;55.762;38.084;2023-10-09T12:52:56;98095.25;;;2.57;100.00
53011;BME280;42803;55.762;38.084;2023-10-09T12:55:31;98058.78;;;2.63;100.00
53011;BME280;42803;55.762;38.084;2023-10-09T12:58:03;98052.72;;;2.62;100.00
53011;BME280;42803;55.762;38.084;2023-10-09T13:00:36;98068.72;;;2.68;100.00
53011;BME280;42803;55.762;38.084;2023-10-09T13:03:12;98069.50;;;2.67;100.00
53011;BME280;42803;55.762;38.084;2023-10-09T13:05:48;98079.66;;;2.66;100.00
53011;BME280;42803;55.762;38.084;2023-10-09T13:08:24;98077.22;;;2.67;100.00
53011;BME280;42803;55.762;38.084;2023-10-09T13:11:05;98073.72;;;2.67;100.00
53011;BME280;42803;55.762;38.084;2023-10-09T13:13:40;98080.56;;;2.66;100.00
53011;BME280;42803;55.762;38.084;2023-10-09T13:16:12;98084.19;;;2.68;100.00
53011;BME280;42803;55.762;38.084;2023-10-09T13:18:48;98092.41;;;2.64;100.00
53011;BME280;42803;55.762;38.084;2023-10-09T13:21:24;98098.19;;;2.62;100.00
53011;BME280;42803;55.762;38.084;2023-10-09T13:23:54;98089.81;;;2.54;100.00
53011;BME280;42803;55.762;38.084;2023-10-09T13:26:27;98093.44;;;2.56;100.00
53011;BME280;42803;55.762;38.084;2023-10-09T13:29:07;98093.69;;;2.59;100.00
53011;BME280;42803;55.762;38.084;2023-10-09T13:31:42;98096.53;;;2.52;100.00
53011;BME280;42803;55.762;38.084;2023-10-09T13:34:26;98100.88;;;2.43;100.00
53011;BME280;42803;55.762;38.084;2023-10-09T13:36:58;98105.25;;;2.44;100.00
53011;BME280;42803;55.762;38.084;2023-10-09T13:39:40;98098.56;;;2.46;100.00
53011;BME280;42803;55.762;38.084;2023-10-09T13:42:23;98098.97;;;2.51;100.00
53011;BME280;42803;55.762;38.084;2023-10-09T13:44:55;98120.22;;;2.48;100.00
53011;BME280;42803;55.762;38.084;2023-10-09T13:47:25;98110.16;;;2.51;100.00
53011;BME280;42803;55.762;38.084;2023-10-09T13:50:00;98122.13;;;2.51;100.00
53011;BME280;42803;55.762;38.084;2023-10-09T13:52:33;98121.88;;;2.48;100.00
53011;BME280;42803;55.762;38.084;2023-10-09T13:55:08;98125.38;;;2.48;100.00
53011;BME280;42803;55.762;38.084;2023-10-09T13:57:49;98136.19;;;2.54;100.00